sensor_id;sensor_type;location;lat;lon;timestamp;temperature;humidity
72484;DHT22;74199;52.014;5.430;2024-01-25T00:00:57;19.80;50.40
72484;DHT22;74199;52.014;5.430;2024-01-25T00:03:24;19.80;50.30
72484;DHT22;74199;52.014;5.430;2024-01-25T00:05:51;19.80;50.30
72484;DHT22;74199;52.014;5.430;2024-01-25T00:08:18;19.80;50.30
72484;DHT22;74199;52.014;5.430;2024-01-25T00:10:45;19.80;50.30
72484;DHT22;74199;52.014;5.430;2024-01-25T00:13:12;19.70;50.20
72484;DHT22;74199;52.014;5.430;2024-01-25T00:15:39;19.70;50.20
72484;DHT22;74199;52.014;5.430;2024-01-25T00:18:06;19.70;50.20
72484;DHT22;74199;52.014;5.430;2024-01-25T00:20:33;19.70;50.20
72484;DHT22;74199;52.014;5.430;2024-01-25T00:23:00;19.80;50.10
72484;DHT22;74199;52.014;5.430;2024-01-25T00:25:27;19.70;50.10
72484;DHT22;74199;52.014;5.430;2024-01-25T00:27:54;19.80;50.10
72484;DHT22;74199;52.014;5.430;2024-01-25T00:30:21;19.70;50.10
72484;DHT22;74199;52.014;5.430;2024-01-25T00:32:48;19.80;50.10
72484;DHT22;74199;52.014;5.430;2024-01-25T00:35:16;19.80;50.10
72484;DHT22;74199;52.014;5.430;2024-01-25T00:37:44;19.80;50.00
72484;DHT22;74199;52.014;5.430;2024-01-25T00:40:11;19.70;50.00
72484;DHT22;74199;52.014;5.430;2024-01-25T00:42:45;19.70;50.00
72484;DHT22;74199;52.014;5.430;2024-01-25T00:45:16;19.70;50.00
72484;DHT22;74199;52.014;5.430;2024-01-25T00:47:43;19.80;49.90
72484;DHT22;74199;52.014;5.430;2024-01-25T00:50:11;19.80;49.90
72484;DHT22;74199;52.014;5.430;2024-01-25T00:52:39;19.80;49.90
72484;DHT22;74199;52.014;5.430;2024-01-25T00:55:07;19.80;49.90
72484;DHT22;74199;52.014;5.430;2024-01-25T00:57:34;19.80;49.90
72484;DHT22;74199;52.014;5.430;2024-01-25T01:00:02;19.80;49.90
72484;DHT22;74199;52.014;5.430;2024-01-25T01:02:39;19.80;49.80
72484;DHT22;74199;52.014;5.430;2024-01-25T01:05:07;19.80;49.80
72484;DHT22;74199;52.014;5.430;2024-01-25T01:07:34;19.80;49.80
72484;DHT22;74199;52.014;5.430;2024-01-25T01:10:01;19.80;49.70
72484;DHT22;74199;52.014;5.430;2024-01-25T01:12:30;19.80;49.70
72484;DHT22;74199;52.014;5.430;2024-01-25T01:14:57;19.80;49.70
72484;DHT22;74199;52.014;5.430;2024-01-25T01:17:24;19.80;49.70
72484;DHT22;74199;52.014;5.430;2024-01-25T01:19:51;19.80;49.70
72484;DHT22;74199;52.014;5.430;2024-01-25T01:22:18;19.80;49.70
72484;DHT22;74199;52.014;5.430;2024-01-25T01:24:45;19.80;49.70
72484;DHT22;74199;52.014;5.430;2024-01-25T01:27:12;19.80;49.60
72484;DHT22;74199;52.014;5.430;2024-01-25T01:29:39;19.80;49.60
72484;DHT22;74199;52.014;5.430;2024-01-25T01:32:07;19.80;49.50
72484;DHT22;74199;52.014;5.430;2024-01-25T01:34:34;19.80;49.50
72484;DHT22;74199;52.014;5.430;2024-01-25T01:37:02;19.80;49.50
72484;DHT22;74199;52.014;5.430;2024-01-25T01:39:29;19.80;49.40
72484;DHT22;74199;52.014;5.430;2024-01-25T01:41:56;19.80;49.40
72484;DHT22;74199;52.014;5.430;2024-01-25T01:44:23;19.80;49.40
72484;DHT22;74199;52.014;5.430;2024-01-25T01:46:50;19.90;49.40
72484;DHT22;74199;52.014;5.430;2024-01-25T01:49:18;19.80;49.30
72484;DHT22;74199;52.014;5.430;2024-01-25T01:51:46;19.80;49.30
72484;DHT22;74199;52.014;5.430;2024-01-25T01:54:13;19.80;49.30
72484;DHT22;74199;52.014;5.430;2024-01-25T01:56:40;19.80;49.20
72484;DHT22;74199;52.014;5.430;2024-01-25T01:59:11;19.90;49.20
72484;DHT22;74199;52.014;5.430;2024-01-25T02:01:38;19.80;49.20
72484;DHT22;74199;52.014;5.430;2024-01-25T02:04:06;19.90;49.10
72484;DHT22;74199;52.014;5.430;2024-01-25T02:06:33;19.80;49.10
72484;DHT22;74199;52.014;5.430;2024-01-25T02:09:01;19.90;49.00
72484;DHT22;74199;52.014;5.430;2024-01-25T02:11:28;19.90;49.00
72484;DHT22;74199;52.014;5.430;2024-01-25T02:13:56;19.90;48.90
72484;DHT22;74199;52.014;5.430;2024-01-25T02:16:23;19.90;48.80
72484;DHT22;74199;52.014;5.430;2024-01-25T02:18:51;19.90;48.80
72484;DHT22;74199;52.014;5.430;2024-01-25T02:21:21;19.90;48.80
72484;DHT22;74199;52.014;5.430;2024-01-25T02:23:48;19.90;48.70
72484;DHT22;74199;52.014;5.430;2024-01-25T02:26:16;19.90;48.60
72484;DHT22;74199;52.014;5.430;2024-01-25T02:28:43;19.90;48.60
72484;DHT22;74199;52.014;5.430;2024-01-25T02:31:10;19.90;48.50
72484;DHT22;74199;52.014;5.430;2024-01-25T02:33:37;19.90;48.40
72484;DHT22;74199;52.014;5.430;2024-01-25T02:36:05;19.90;48.40
72484;DHT22;74199;52.014;5.430;2024-01-25T02:38:32;19.90;48.20
72484;DHT22;74199;52.014;5.430;2024-01-25T02:40:58;19.90;48.20
72484;DHT22;74199;52.014;5.430;2024-01-25T02:43:25;19.90;48.20
72484;DHT22;74199;52.014;5.430;2024-01-25T02:45:53;19.90;48.20
72484;DHT22;74199;52.014;5.430;2024-01-25T02:48:20;19.90;48.10
72484;DHT22;74199;52.014;5.430;2024-01-25T02:50:48;19.90;48.00
72484;DHT22;74199;52.014;5.430;2024-01-25T02:53:14;19.90;48.00
72484;DHT22;74199;52.014;5.430;2024-01-25T02:55:41;19.90;47.90
72484;DHT22;74199;52.014;5.430;2024-01-25T02:58:08;19.90;47.90
72484;DHT22;74199;52.014;5.430;2024-01-25T03:00:35;19.90;47.80
72484;DHT22;74199;52.014;5.430;2024-01-25T03:03:02;19.90;47.80
72484;DHT22;74199;52.014;5.430;2024-01-25T03:05:29;19.90;47.70
72484;DHT22;74199;52.014;5.430;2024-01-25T03:07:57;20.00;47.60
72484;DHT22;74199;52.014;5.430;2024-01-25T03:10:23;20.00;47.60
72484;DHT22;74199;52.014;5.430;2024-01-25T03:12:51;20.00;47.60
72484;DHT22;74199;52.014;5.430;2024-01-25T03:15:18;20.00;47.50
72484;DHT22;74199;52.014;5.430;2024-01-25T03:17:44;20.00;47.40
72484;DHT22;74199;52.014;5.430;2024-01-25T03:20:12;20.00;47.30
72484;DHT22;74199;52.014;5.430;2024-01-25T03:22:39;20.10;47.30
72484;DHT22;74199;52.014;5.430;2024-01-25T03:25:06;20.10;47.30
72484;DHT22;74199;52.014;5.430;2024-01-25T03:27:33;20.10;47.20
72484;DHT22;74199;52.014;5.430;2024-01-25T03:30:00;20.10;47.10
72484;DHT22;74199;52.014;5.430;2024-01-25T03:32:27;20.10;47.00
72484;DHT22;74199;52.014;5.430;2024-01-25T03:34:58;20.20;46.90
72484;DHT22;74199;52.014;5.430;2024-01-25T03:37:25;20.20;46.90
72484;DHT22;74199;52.014;5.430;2024-01-25T03:39:52;20.20;46.80
72484;DHT22;74199;52.014;5.430;2024-01-25T03:42:19;20.20;46.70
72484;DHT22;74199;52.014;5.430;2024-01-25T03:44:46;20.20;46.70
72484;DHT22;74199;52.014;5.430;2024-01-25T03:47:14;20.20;46.50
72484;DHT22;74199;52.014;5.430;2024-01-25T03:49:41;20.20;46.40
72484;DHT22;74199;52.014;5.430;2024-01-25T03:52:08;20.20;46.40
72484;DHT22;74199;52.014;5.430;2024-01-25T03:54:35;20.20;46.30
72484;DHT22;74199;52.014;5.430;2024-01-25T03:57:02;20.20;46.30
72484;DHT22;74199;52.014;5.430;2024-01-25T03:59:29;20.20;46.20
72484;DHT22;74199;52.014;5.430;2024-01-25T04:01:57;20.20;46.20
72484;DHT22;74199;52.014;5.430;2024-01-25T04:04:24;20.20;46.00
72484;DHT22;74199;52.014;5.430;2024-01-25T04:06:51;20.20;46.10
72484;DHT22;74199;52.014;5.430;2024-01-25T04:09:18;20.20;46.00
72484;DHT22;74199;52.014;5.430;2024-01-25T04:11:45;20.20;46.00
72484;DHT22;74199;52.014;5.430;2024-01-25T04:14:12;20.20;45.90
72484;DHT22;74199;52.014;5.430;2024-01-25T04:16:39;20.20;45.80
72484;DHT22;74199;52.014;5.430;2024-01-25T04:19:06;20.20;45.80
72484;DHT22;74199;52.014;5.430;2024-01-25T04:21:37;20.20;45.80
72484;DHT22;74199;52.014;5.430;2024-01-25T04:24:04;20.20;45.80
72484;DHT22;74199;52.014;5.430;2024-01-25T04:26:31;20.20;45.70
72484;DHT22;74199;52.014;5.430;2024-01-25T04:28:58;20.20;45.60
72484;DHT22;74199;52.014;5.430;2024-01-25T04:31:25;20.20;45.50
72484;DHT22;74199;52.014;5.430;2024-01-25T04:33:52;20.30;45.50
72484;DHT22;74199;52.014;5.430;2024-01-25T04:36:20;20.30;45.40
72484;DHT22;74199;52.014;5.430;2024-01-25T04:38:47;20.30;45.40
72484;DHT22;74199;52.014;5.430;2024-01-25T04:41:13;20.30;45.30
72484;DHT22;74199;52.014;5.430;2024-01-25T04:43:40;20.30;45.20
72484;DHT22;74199;52.014;5.430;2024-01-25T04:46:09;20.30;45.20
72484;DHT22;74199;52.014;5.430;2024-01-25T04:48:36;20.30;45.00
72484;DHT22;74199;52.014;5.430;2024-01-25T04:51:04;20.30;45.00
72484;DHT22;74199;52.014;5.430;2024-01-25T04:53:31;20.30;45.00
72484;DHT22;74199;52.014;5.430;2024-01-25T04:55:58;20.30;45.00
72484;DHT22;74199;52.014;5.430;2024-01-25T04:58:26;20.30;44.80
72484;DHT22;74199;52.014;5.430;2024-01-25T05:00:53;20.20;44.80
72484;DHT22;74199;52.014;5.430;2024-01-25T05:03:22;20.20;44.80
72484;DHT22;74199;52.014;5.430;2024-01-25T05:05:49;20.20;44.70
72484;DHT22;74199;52.014;5.430;2024-01-25T05:08:16;20.20;44.80
72484;DHT22;74199;52.014;5.430;2024-01-25T05:10:44;20.20;44.70
72484;DHT22;74199;52.014;5.430;2024-01-25T05:13:12;20.20;44.60
72484;DHT22;74199;52.014;5.430;2024-01-25T05:15:39;20.20;44.70
72484;DHT22;74199;52.014;5.430;2024-01-25T05:18:06;20.20;44.60
72484;DHT22;74199;52.014;5.430;2024-01-25T05:20:34;20.20;44.50
72484;DHT22;74199;52.014;5.430;2024-01-25T05:23:04;20.30;44.60
72484;DHT22;74199;52.014;5.430;2024-01-25T05:25:31;20.30;44.50
72484;DHT22;74199;52.014;5.430;2024-01-25T05:27:59;20.30;44.50
72484;DHT22;74199;52.014;5.430;2024-01-25T05:30:27;20.30;44.50
72484;DHT22;74199;52.014;5.430;2024-01-25T05:32:54;20.30;44.40
72484;DHT22;74199;52.014;5.430;2024-01-25T05:35:22;20.30;44.40
72484;DHT22;74199;52.014;5.430;2024-01-25T05:37:51;20.30;44.20
72484;DHT22;74199;52.014;5.430;2024-01-25T05:40:18;20.40;44.30
72484;DHT22;74199;52.014;5.430;2024-01-25T05:42:45;20.40;44.20
72484;DHT22;74199;52.014;5.430;2024-01-25T05:45:12;20.40;44.20
72484;DHT22;74199;52.014;5.430;2024-01-25T05:47:39;20.40;44.10
72484;DHT22;74199;52.014;5.430;2024-01-25T05:50:07;20.40;44.10
72484;DHT22;74199;52.014;5.430;2024-01-25T05:52:34;20.40;44.00
72484;DHT22;74199;52.014;5.430;2024-01-25T05:55:04;20.40;44.00
72484;DHT22;74199;52.014;5.430;2024-01-25T05:57:34;20.40;44.00
72484;DHT22;74199;52.014;5.430;2024-01-25T06:00:02;20.40;43.90
72484;DHT22;74199;52.014;5.430;2024-01-25T06:02:33;20.40;44.00
72484;DHT22;74199;52.014;5.430;2024-01-25T06:05:01;20.40;44.10
72484;DHT22;74199;52.014;5.430;2024-01-25T06:07:28;20.40;44.10
72484;DHT22;74199;52.014;5.430;2024-01-25T06:09:56;20.40;44.00
72484;DHT22;74199;52.014;5.430;2024-01-25T06:12:23;20.30;44.00
72484;DHT22;74199;52.014;5.430;2024-01-25T06:14:50;20.30;44.00
72484;DHT22;74199;52.014;5.430;2024-01-25T06:17:19;20.30;43.90
72484;DHT22;74199;52.014;5.430;2024-01-25T06:19:46;20.30;44.00
72484;DHT22;74199;52.014;5.430;2024-01-25T06:22:13;20.30;44.20
72484;DHT22;74199;52.014;5.430;2024-01-25T06:24:40;20.30;44.30
72484;DHT22;74199;52.014;5.430;2024-01-25T06:27:07;20.30;44.30
72484;DHT22;74199;52.014;5.430;2024-01-25T06:29:34;20.30;44.30
72484;DHT22;74199;52.014;5.430;2024-01-25T06:32:01;20.30;44.30
72484;DHT22;74199;52.014;5.430;2024-01-25T06:34:36;20.30;44.30
72484;DHT22;74199;52.014;5.430;2024-01-25T06:37:04;20.30;44.30
72484;DHT22;74199;52.014;5.430;2024-01-25T06:39:31;20.30;44.50
72484;DHT22;74199;52.014;5.430;2024-01-25T06:41:59;20.40;44.40
72484;DHT22;74199;52.014;5.430;2024-01-25T06:44:26;20.40;44.40
72484;DHT22;74199;52.014;5.430;2024-01-25T06:46:53;20.40;44.40
72484;DHT22;74199;52.014;5.430;2024-01-25T06:49:19;20.40;44.50
72484;DHT22;74199;52.014;5.430;2024-01-25T06:51:46;20.40;44.40
72484;DHT22;74199;52.014;5.430;2024-01-25T06:54:13;20.40;44.40
72484;DHT22;74199;52.014;5.430;2024-01-25T06:56:41;20.40;44.40
72484;DHT22;74199;52.014;5.430;2024-01-25T06:59:09;20.40;44.40
72484;DHT22;74199;52.014;5.430;2024-01-25T07:01:36;20.40;44.30
72484;DHT22;74199;52.014;5.430;2024-01-25T07:04:03;20.40;44.40
72484;DHT22;74199;52.014;5.430;2024-01-25T07:06:31;20.40;44.30
72484;DHT22;74199;52.014;5.430;2024-01-25T07:08:58;20.40;44.30
72484;DHT22;74199;52.014;5.430;2024-01-25T07:11:25;20.40;44.20
72484;DHT22;74199;52.014;5.430;2024-01-25T07:13:52;20.40;44.20
72484;DHT22;74199;52.014;5.430;2024-01-25T07:16:19;20.40;44.20
72484;DHT22;74199;52.014;5.430;2024-01-25T07:18:46;20.40;44.10
72484;DHT22;74199;52.014;5.430;2024-01-25T07:21:13;20.40;44.10
72484;DHT22;74199;52.014;5.430;2024-01-25T07:23:40;20.40;44.10
72484;DHT22;74199;52.014;5.430;2024-01-25T07:26:07;20.50;44.10
72484;DHT22;74199;52.014;5.430;2024-01-25T07:28:34;20.50;44.10
72484;DHT22;74199;52.014;5.430;2024-01-25T07:31:01;20.50;44.00
72484;DHT22;74199;52.014;5.430;2024-01-25T07:33:28;20.50;43.90
72484;DHT22;74199;52.014;5.430;2024-01-25T07:35:55;20.50;43.90
72484;DHT22;74199;52.014;5.430;2024-01-25T07:38:25;20.50;43.90
72484;DHT22;74199;52.014;5.430;2024-01-25T07:40:52;20.50;43.90
72484;DHT22;74199;52.014;5.430;2024-01-25T07:43:19;20.50;43.80
72484;DHT22;74199;52.014;5.430;2024-01-25T07:45:46;20.50;43.80
72484;DHT22;74199;52.014;5.430;2024-01-25T07:48:13;20.50;43.80
72484;DHT22;74199;52.014;5.430;2024-01-25T07:50:41;20.50;43.80
72484;DHT22;74199;52.014;5.430;2024-01-25T07:53:10;20.50;43.70
72484;DHT22;74199;52.014;5.430;2024-01-25T07:55:39;20.50;43.80
72484;DHT22;74199;52.014;5.430;2024-01-25T07:58:06;20.50;43.70
72484;DHT22;74199;52.014;5.430;2024-01-25T08:00:33;20.50;43.70
72484;DHT22;74199;52.014;5.430;2024-01-25T08:03:00;20.50;43.70
72484;DHT22;74199;52.014;5.430;2024-01-25T08:05:27;20.50;43.80
72484;DHT22;74199;52.014;5.430;2024-01-25T08:08:10;20.50;43.70
72484;DHT22;74199;52.014;5.430;2024-01-25T08:10:37;20.50;43.70
72484;DHT22;74199;52.014;5.430;2024-01-25T08:13:04;20.50;43.70
72484;DHT22;74199;52.014;5.430;2024-01-25T08:15:34;20.50;43.70
72484;DHT22;74199;52.014;5.430;2024-01-25T08:18:01;20.50;43.60
72484;DHT22;74199;52.014;5.430;2024-01-25T08:20:28;20.50;43.60
72484;DHT22;74199;52.014;5.430;2024-01-25T08:22:56;20.50;43.60
72484;DHT22;74199;52.014;5.430;2024-01-25T08:25:23;20.50;43.50
72484;DHT22;74199;52.014;5.430;2024-01-25T08:27:51;20.50;43.50
72484;DHT22;74199;52.014;5.430;2024-01-25T08:30:18;20.50;43.60
72484;DHT22;74199;52.014;5.430;2024-01-25T08:32:45;20.60;43.50
72484;DHT22;74199;52.014;5.430;2024-01-25T08:35:12;20.60;43.50
72484;DHT22;74199;52.014;5.430;2024-01-25T08:37:39;20.60;43.50
72484;DHT22;74199;52.014;5.430;2024-01-25T08:40:07;20.50;43.40
72484;DHT22;74199;52.014;5.430;2024-01-25T08:42:36;20.60;43.50
72484;DHT22;74199;52.014;5.430;2024-01-25T08:45:04;20.60;43.40
72484;DHT22;74199;52.014;5.430;2024-01-25T08:47:34;20.60;43.40
72484;DHT22;74199;52.014;5.430;2024-01-25T08:50:01;20.60;43.40
72484;DHT22;74199;52.014;5.430;2024-01-25T08:52:28;20.60;43.40
72484;DHT22;74199;52.014;5.430;2024-01-25T08:54:55;20.60;43.40
72484;DHT22;74199;52.014;5.430;2024-01-25T08:57:22;20.60;43.40
72484;DHT22;74199;52.014;5.430;2024-01-25T08:59:49;20.60;43.40
72484;DHT22;74199;52.014;5.430;2024-01-25T09:02:16;20.60;43.40
72484;DHT22;74199;52.014;5.430;2024-01-25T09:04:43;20.60;43.40
72484;DHT22;74199;52.014;5.430;2024-01-25T09:07:11;20.60;43.40
72484;DHT22;74199;52.014;5.430;2024-01-25T09:09:38;20.60;43.40
72484;DHT22;74199;52.014;5.430;2024-01-25T09:12:06;20.60;43.40
72484;DHT22;74199;52.014;5.430;2024-01-25T09:14:39;20.60;43.40
72484;DHT22;74199;52.014;5.430;2024-01-25T09:17:06;20.60;43.40
72484;DHT22;74199;52.014;5.430;2024-01-25T09:19:32;20.60;43.30
72484;DHT22;74199;52.014;5.430;2024-01-25T09:22:00;20.60;43.40
72484;DHT22;74199;52.014;5.430;2024-01-25T09:24:31;20.60;43.40
72484;DHT22;74199;52.014;5.430;2024-01-25T09:26:58;20.60;43.50
72484;DHT22;74199;52.014;5.430;2024-01-25T09:29:26;20.60;43.50
72484;DHT22;74199;52.014;5.430;2024-01-25T09:31:54;20.60;43.50
72484;DHT22;74199;52.014;5.430;2024-01-25T09:34:21;20.60;43.60
72484;DHT22;74199;52.014;5.430;2024-01-25T09:36:48;20.60;43.60
72484;DHT22;74199;52.014;5.430;2024-01-25T09:39:16;20.50;43.60
72484;DHT22;74199;52.014;5.430;2024-01-25T09:41:46;20.60;43.60
72484;DHT22;74199;52.014;5.430;2024-01-25T09:44:13;20.50;43.70
72484;DHT22;74199;52.014;5.430;2024-01-25T09:46:41;20.50;43.70
72484;DHT22;74199;52.014;5.430;2024-01-25T09:49:09;20.50;43.70
72484;DHT22;74199;52.014;5.430;2024-01-25T09:51:38;20.50;43.70
72484;DHT22;74199;52.014;5.430;2024-01-25T09:54:05;20.60;43.70
72484;DHT22;74199;52.014;5.430;2024-01-25T09:56:33;20.50;43.80
72484;DHT22;74199;52.014;5.430;2024-01-25T09:59:00;20.50;43.80
72484;DHT22;74199;52.014;5.430;2024-01-25T10:01:28;20.50;43.80
72484;DHT22;74199;52.014;5.430;2024-01-25T10:03:55;20.50;43.90
72484;DHT22;74199;52.014;5.430;2024-01-25T10:06:23;20.50;43.80
72484;DHT22;74199;52.014;5.430;2024-01-25T10:08:50;20.50;43.80
72484;DHT22;74199;52.014;5.430;2024-01-25T10:11:18;20.50;43.90
72484;DHT22;74199;52.014;5.430;2024-01-25T10:13:47;20.50;43.90
72484;DHT22;74199;52.014;5.430;2024-01-25T10:16:18;20.50;43.90
72484;DHT22;74199;52.014;5.430;2024-01-25T10:18:47;20.50;43.90
72484;DHT22;74199;52.014;5.430;2024-01-25T10:21:16;20.50;43.90
72484;DHT22;74199;52.014;5.430;2024-01-25T10:23:45;20.50;44.00
72484;DHT22;74199;52.014;5.430;2024-01-25T10:26:13;20.50;44.00
72484;DHT22;74199;52.014;5.430;2024-01-25T10:28:41;20.50;44.10
72484;DHT22;74199;52.014;5.430;2024-01-25T10:31:09;20.50;44.10
72484;DHT22;74199;52.014;5.430;2024-01-25T10:33:38;20.50;44.10
72484;DHT22;74199;52.014;5.430;2024-01-25T10:36:08;20.50;44.10
72484;DHT22;74199;52.014;5.430;2024-01-25T10:38:35;20.50;44.10
72484;DHT22;74199;52.014;5.430;2024-01-25T10:41:05;20.50;44.20
72484;DHT22;74199;52.014;5.430;2024-01-25T10:43:32;20.50;44.10
72484;DHT22;74199;52.014;5.430;2024-01-25T10:46:00;20.50;44.20
72484;DHT22;74199;52.014;5.430;2024-01-25T10:48:31;20.50;44.20
72484;DHT22;74199;52.014;5.430;2024-01-25T10:50:59;20.50;44.30
72484;DHT22;74199;52.014;5.430;2024-01-25T10:53:31;20.50;44.30
72484;DHT22;74199;52.014;5.430;2024-01-25T10:55:59;20.50;44.30
72484;DHT22;74199;52.014;5.430;2024-01-25T10:58:30;20.50;44.40
72484;DHT22;74199;52.014;5.430;2024-01-25T11:01:11;20.50;44.30
72484;DHT22;74199;52.014;5.430;2024-01-25T11:03:42;20.50;44.40
72484;DHT22;74199;52.014;5.430;2024-01-25T11:06:13;20.40;44.50
72484;DHT22;74199;52.014;5.430;2024-01-25T11:08:41;20.40;44.40
72484;DHT22;74199;52.014;5.430;2024-01-25T11:11:12;20.40;44.40
72484;DHT22;74199;52.014;5.430;2024-01-25T11:13:43;20.40;44.50
72484;DHT22;74199;52.014;5.430;2024-01-25T11:16:15;20.40;44.60
72484;DHT22;74199;52.014;5.430;2024-01-25T11:18:51;20.40;44.60
72484;DHT22;74199;52.014;5.430;2024-01-25T11:21:28;20.40;44.60
72484;DHT22;74199;52.014;5.430;2024-01-25T11:24:00;20.40;44.60
72484;DHT22;74199;52.014;5.430;2024-01-25T11:26:27;20.40;44.70
72484;DHT22;74199;52.014;5.430;2024-01-25T11:28:54;20.40;44.70
72484;DHT22;74199;52.014;5.430;2024-01-25T11:31:22;20.40;44.70
72484;DHT22;74199;52.014;5.430;2024-01-25T11:33:51;20.40;44.70
72484;DHT22;74199;52.014;5.430;2024-01-25T11:36:20;20.40;44.70
72484;DHT22;74199;52.014;5.430;2024-01-25T11:38:48;20.40;44.80
72484;DHT22;74199;52.014;5.430;2024-01-25T11:41:17;20.40;44.80
72484;DHT22;74199;52.014;5.430;2024-01-25T11:43:44;20.40;44.80
72484;DHT22;74199;52.014;5.430;2024-01-25T11:46:11;20.40;44.80
72484;DHT22;74199;52.014;5.430;2024-01-25T11:48:41;20.40;44.90
72484;DHT22;74199;52.014;5.430;2024-01-25T11:51:11;20.40;44.90
72484;DHT22;74199;52.014;5.430;2024-01-25T11:53:39;20.40;44.90
72484;DHT22;74199;52.014;5.430;2024-01-25T11:56:09;20.40;45.00
72484;DHT22;74199;52.014;5.430;2024-01-25T11:58:38;20.40;45.00
72484;DHT22;74199;52.014;5.430;2024-01-25T12:01:08;20.30;44.90
72484;DHT22;74199;52.014;5.430;2024-01-25T12:03:35;20.40;45.00
72484;DHT22;74199;52.014;5.430;2024-01-25T12:06:06;20.40;45.00
72484;DHT22;74199;52.014;5.430;2024-01-25T12:08:33;20.40;45.00
72484;DHT22;74199;52.014;5.430;2024-01-25T12:11:05;20.30;45.00
72484;DHT22;74199;52.014;5.430;2024-01-25T12:13:33;20.30;45.10
72484;DHT22;74199;52.014;5.430;2024-01-25T12:16:01;20.30;45.10
72484;DHT22;74199;52.014;5.430;2024-01-25T12:18:29;20.30;45.10
72484;DHT22;74199;52.014;5.430;2024-01-25T12:21:00;20.30;45.10
72484;DHT22;74199;52.014;5.430;2024-01-25T12:23:36;20.30;45.20
72484;DHT22;74199;52.014;5.430;2024-01-25T12:26:10;20.30;45.20
72484;DHT22;74199;52.014;5.430;2024-01-25T12:28:41;20.30;45.20
72484;DHT22;74199;52.014;5.430;2024-01-25T12:31:08;20.30;45.30
72484;DHT22;74199;52.014;5.430;2024-01-25T12:33:36;20.30;45.30
72484;DHT22;74199;52.014;5.430;2024-01-25T12:36:04;20.30;45.40
72484;DHT22;74199;52.014;5.430;2024-01-25T12:38:31;20.30;45.40
72484;DHT22;74199;52.014;5.430;2024-01-25T12:41:01;20.30;45.30
72484;DHT22;74199;52.014;5.430;2024-01-25T12:43:29;20.30;45.30
72484;DHT22;74199;52.014;5.430;2024-01-25T12:45:56;20.30;45.40
72484;DHT22;74199;52.014;5.430;2024-01-25T12:48:39;20.30;45.40
72484;DHT22;74199;52.014;5.430;2024-01-25T12:51:06;20.30;45.50
72484;DHT22;74199;52.014;5.430;2024-01-25T12:53:33;20.40;45.50
72484;DHT22;74199;52.014;5.430;2024-01-25T12:56:00;20.40;45.50
72484;DHT22;74199;52.014;5.430;2024-01-25T12:58:27;20.40;45.50
72484;DHT22;74199;52.014;5.430;2024-01-25T13:00:55;20.40;45.60
72484;DHT22;74199;52.014;5.430;2024-01-25T13:03:22;20.50;45.60
72484;DHT22;74199;52.014;5.430;2024-01-25T13:05:49;20.50;45.60
72484;DHT22;74199;52.014;5.430;2024-01-25T13:08:17;20.50;45.60
72484;DHT22;74199;52.014;5.430;2024-01-25T13:10:44;20.50;45.60
72484;DHT22;74199;52.014;5.430;2024-01-25T13:13:11;20.50;45.70
72484;DHT22;74199;52.014;5.430;2024-01-25T13:15:38;20.50;45.70
72484;DHT22;74199;52.014;5.430;2024-01-25T13:18:05;20.50;45.70
72484;DHT22;74199;52.014;5.430;2024-01-25T13:20:32;20.50;45.70
72484;DHT22;74199;52.014;5.430;2024-01-25T13:22:59;20.50;45.70
72484;DHT22;74199;52.014;5.430;2024-01-25T13:25:25;20.50;45.70
72484;DHT22;74199;52.014;5.430;2024-01-25T13:27:52;20.50;45.70
72484;DHT22;74199;52.014;5.430;2024-01-25T13:30:19;20.50;45.80
72484;DHT22;74199;52.014;5.430;2024-01-25T13:32:46;20.50;45.80
72484;DHT22;74199;52.014;5.430;2024-01-25T13:35:13;20.60;45.70
72484;DHT22;74199;52.014;5.430;2024-01-25T13:37:40;20.60;45.60
72484;DHT22;74199;52.014;5.430;2024-01-25T13:40:07;20.60;45.60
72484;DHT22;74199;52.014;5.430;2024-01-25T13:42:34;20.60;45.60
72484;DHT22;74199;52.014;5.430;2024-01-25T13:45:01;20.60;45.60
72484;DHT22;74199;52.014;5.430;2024-01-25T13:47:29;20.60;45.70
72484;DHT22;74199;52.014;5.430;2024-01-25T13:49:56;20.60;45.70
72484;DHT22;74199;52.014;5.430;2024-01-25T13:52:23;20.60;45.70
72484;DHT22;74199;52.014;5.430;2024-01-25T13:54:50;20.60;45.70
72484;DHT22;74199;52.014;5.430;2024-01-25T13:57:17;20.50;45.70
72484;DHT22;74199;52.014;5.430;2024-01-25T13:59:44;20.50;45.80
72484;DHT22;74199;52.014;5.430;2024-01-25T14:02:11;20.60;45.80
72484;DHT22;74199;52.014;5.430;2024-01-25T14:04:38;20.60;45.90
72484;DHT22;74199;52.014;5.430;2024-01-25T14:07:07;20.60;45.80
72484;DHT22;74199;52.014;5.430;2024-01-25T14:09:34;20.60;45.80
72484;DHT22;74199;52.014;5.430;2024-01-25T14:12:02;20.60;45.80
72484;DHT22;74199;52.014;5.430;2024-01-25T14:14:29;20.60;45.90
72484;DHT22;74199;52.014;5.430;2024-01-25T14:16:56;20.60;45.80
72484;DHT22;74199;52.014;5.430;2024-01-25T14:19:23;20.50;45.90
72484;DHT22;74199;52.014;5.430;2024-01-25T14:21:51;20.60;45.90
72484;DHT22;74199;52.014;5.430;2024-01-25T14:24:21;20.60;45.90
72484;DHT22;74199;52.014;5.430;2024-01-25T14:26:48;20.60;45.90
72484;DHT22;74199;52.014;5.430;2024-01-25T14:29:15;20.60;45.90
72484;DHT22;74199;52.014;5.430;2024-01-25T14:31:42;20.60;45.90
72484;DHT22;74199;52.014;5.430;2024-01-25T14:34:10;20.60;45.90
72484;DHT22;74199;52.014;5.430;2024-01-25T14:36:37;20.60;46.00
72484;DHT22;74199;52.014;5.430;2024-01-25T14:39:04;20.60;46.10
72484;DHT22;74199;52.014;5.430;2024-01-25T14:41:31;20.60;46.20
72484;DHT22;74199;52.014;5.430;2024-01-25T14:44:00;20.60;46.50
72484;DHT22;74199;52.014;5.430;2024-01-25T14:46:27;20.60;46.80
72484;DHT22;74199;52.014;5.430;2024-01-25T14:48:54;20.60;47.00
72484;DHT22;74199;52.014;5.430;2024-01-25T14:51:24;20.60;47.20
72484;DHT22;74199;52.014;5.430;2024-01-25T14:53:51;20.60;47.10
72484;DHT22;74199;52.014;5.430;2024-01-25T14:56:18;20.60;47.10
72484;DHT22;74199;52.014;5.430;2024-01-25T14:58:45;20.60;47.30
72484;DHT22;74199;52.014;5.430;2024-01-25T15:01:15;20.60;47.60
72484;DHT22;74199;52.014;5.430;2024-01-25T15:03:47;20.60;47.80
72484;DHT22;74199;52.014;5.430;2024-01-25T15:06:14;20.60;48.00
72484;DHT22;74199;52.014;5.430;2024-01-25T15:08:41;20.60;48.10
72484;DHT22;74199;52.014;5.430;2024-01-25T15:11:08;20.60;48.30
72484;DHT22;74199;52.014;5.430;2024-01-25T15:13:35;20.60;48.40
72484;DHT22;74199;52.014;5.430;2024-01-25T15:16:03;20.60;48.30
72484;DHT22;74199;52.014;5.430;2024-01-25T15:18:31;20.60;48.20
72484;DHT22;74199;52.014;5.430;2024-01-25T15:20:58;20.60;48.20
72484;DHT22;74199;52.014;5.430;2024-01-25T15:23:25;20.70;48.30
72484;DHT22;74199;52.014;5.430;2024-01-25T15:25:52;20.70;48.30
72484;DHT22;74199;52.014;5.430;2024-01-25T15:28:20;20.70;48.30
72484;DHT22;74199;52.014;5.430;2024-01-25T15:30:47;20.70;48.30
72484;DHT22;74199;52.014;5.430;2024-01-25T15:33:14;20.70;48.20